createdAt,value
2023-02-19T00:03:05.791Z,10.88
2023-02-19T00:07:07.358Z,9.02
2023-02-19T00:11:12.268Z,8.30
2023-02-19T00:15:13.859Z,9.07
2023-02-19T00:19:18.086Z,9.43
2023-02-19T00:23:19.965Z,8.98
2023-02-19T00:27:21.655Z,8.60
2023-02-19T00:31:25.817Z,9.15
2023-02-19T00:35:27.954Z,9.70
2023-02-19T00:39:29.615Z,9.77
2023-02-19T00:43:31.224Z,10.55
2023-02-19T00:47:32.762Z,10.57
2023-02-19T00:51:37.160Z,10.98
2023-02-19T00:55:38.739Z,8.30
2023-02-19T00:59:40.297Z,9.95
2023-02-19T01:03:42.040Z,8.93
2023-02-19T01:07:43.727Z,9.10
2023-02-19T01:11:45.571Z,9.23
2023-02-19T01:15:47.302Z,8.80
2023-02-19T01:19:49.062Z,7.60
2023-02-19T01:23:51.875Z,8.82
2023-02-19T01:27:56.249Z,9.25
2023-02-19T01:31:57.927Z,8.75
2023-02-19T01:36:00.169Z,7.03
2023-02-19T01:40:01.760Z,9.38
2023-02-19T01:44:25.894Z,9.45
2023-02-19T01:48:38.180Z,10.02
2023-02-19T01:52:39.796Z,8.33
2023-02-19T01:56:43.518Z,7.72
2023-02-19T02:00:45.322Z,10.18
2023-02-19T02:04:47.410Z,11.60
2023-02-19T02:09:12.009Z,8.82
2023-02-19T02:13:13.679Z,10.45
2023-02-19T02:17:26.102Z,8.75
2023-02-19T02:21:36.299Z,9.57
2023-02-19T02:26:06.264Z,9.43
2023-02-19T02:30:07.894Z,9.00
2023-02-19T02:34:16.115Z,8.13
2023-02-19T02:38:22.058Z,9.13
2023-02-19T02:42:29.618Z,8.75
2023-02-19T02:46:42.300Z,13.40
2023-02-19T02:51:03.520Z,8.50
2023-02-19T02:55:11.113Z,7.47
2023-02-19T02:59:15.885Z,7.38
2023-02-19T03:03:21.013Z,8.48
2023-02-19T03:07:22.701Z,7.18
2023-02-19T03:11:43.381Z,6.47
2023-02-19T03:16:17.064Z,7.18
2023-02-19T03:20:23.071Z,7.38
2023-02-19T03:24:50.487Z,6.15
2023-02-19T03:29:12.950Z,7.72
2023-02-19T03:33:22.348Z,7.07
2023-02-19T03:37:39.604Z,6.63
2023-02-19T03:42:04.466Z,7.15
2023-02-19T03:46:13.960Z,6.80
2023-02-19T03:50:28.102Z,8.25
2023-02-19T03:55:09.466Z,6.93
2023-02-19T03:59:22.018Z,7.55
2023-02-19T04:03:31.472Z,6.80
2023-02-19T04:07:37.676Z,7.53
2023-02-19T04:11:39.623Z,6.80
2023-02-19T04:15:46.531Z,9.25
2023-02-19T04:19:50.913Z,6.43
2023-02-19T04:23:52.720Z,6.28
2023-02-19T04:27:54.757Z,7.85
2023-02-19T04:31:56.529Z,10.00
2023-02-19T04:35:58.119Z,8.30
2023-02-19T04:39:59.666Z,8.70
2023-02-19T04:44:01.305Z,7.60
2023-02-19T04:48:03.147Z,8.82
2023-02-19T04:52:04.816Z,7.47
2023-02-19T04:56:08.670Z,8.93
2023-02-19T05:00:10.900Z,8.30
2023-02-19T05:04:12.565Z,8.13
2023-02-19T05:08:14.300Z,12.20
2023-02-19T05:12:15.844Z,8.75
2023-02-19T05:16:17.689Z,9.32
2023-02-19T05:20:19.401Z,9.37
2023-02-19T05:24:21.067Z,8.23
2023-02-19T05:28:28.674Z,8.77
2023-02-19T05:32:30.390Z,9.32
2023-02-19T05:36:32.612Z,10.27
2023-02-19T05:40:34.799Z,8.15
2023-02-19T05:44:36.346Z,9.13
2023-02-19T05:48:38.121Z,9.95
2023-02-19T05:52:39.642Z,9.65
2023-02-19T05:56:42.152Z,9.75
2023-02-19T06:00:43.717Z,7.80
2023-02-19T06:04:45.345Z,8.88
2023-02-19T06:08:49.726Z,10.48
2023-02-19T06:12:54.762Z,7.40
2023-02-19T06:16:56.340Z,6.43
2023-02-19T06:21:06.105Z,6.30
2023-02-19T06:25:12.199Z,6.82
2023-02-19T06:29:13.751Z,7.50
2023-02-19T06:33:15.488Z,10.77
2023-02-19T06:37:17.102Z,7.53
2023-02-19T06:41:19.271Z,9.50
2023-02-19T06:45:20.880Z,10.15
2023-02-19T06:49:22.895Z,9.90
2023-02-19T06:53:24.625Z,6.97
2023-02-19T06:57:26.149Z,8.15
2023-02-19T07:01:29.609Z,11.10
2023-02-19T07:05:31.169Z,7.70
2023-02-19T07:09:32.967Z,6.55
2023-02-19T07:13:34.564Z,9.45
2023-02-19T07:17:36.246Z,7.13
2023-02-19T07:21:37.871Z,6.72
2023-02-19T07:25:39.794Z,5.85
2023-02-19T07:29:41.347Z,7.03
2023-02-19T07:33:44.377Z,8.50
2023-02-19T07:37:45.959Z,7.68
2023-02-19T07:41:47.507Z,6.80
2023-02-19T07:46:05.486Z,6.65
2023-02-19T07:50:07.498Z,6.25
2023-02-19T07:54:09.134Z,6.13
2023-02-19T07:58:10.722Z,6.20
2023-02-19T08:02:35.999Z,4.97
2023-02-19T08:06:37.708Z,5.95
2023-02-19T08:10:58.449Z,5.10
2023-02-19T08:15:00.004Z,4.45
2023-02-19T08:19:02.374Z,5.95
2023-02-19T08:23:04.250Z,5.47
2023-02-19T08:27:05.811Z,4.88
2023-02-19T08:31:09.248Z,5.03
2023-02-19T08:35:11.744Z,5.80
2023-02-19T08:39:13.296Z,3.53
2023-02-19T08:43:17.423Z,4.28
2023-02-19T08:47:19.162Z,2.97
2023-02-19T08:51:20.786Z,5.53
2023-02-19T08:55:22.383Z,4.07
2023-02-19T08:59:23.985Z,6.85
2023-02-19T09:03:25.592Z,3.97
2023-02-19T09:07:27.968Z,3.15
2023-02-19T09:11:29.525Z,2.13
2023-02-19T09:15:31.381Z,4.80
2023-02-19T09:19:33.282Z,2.92
2023-02-19T09:23:36.364Z,6.80
2023-02-19T09:27:38.138Z,2.92
2023-02-19T09:31:39.871Z,5.07
2023-02-19T09:35:41.431Z,3.42
2023-02-19T09:39:43.036Z,1.75
2023-02-19T09:43:45.345Z,6.53
2023-02-19T09:47:47.399Z,2.80
2023-02-19T09:51:54.994Z,4.83
2023-02-19T09:55:56.869Z,2.63
2023-02-19T10:00:28.618Z,4.05
2023-02-19T10:04:30.263Z,5.97
2023-02-19T10:08:34.226Z,2.83
2023-02-19T10:12:35.857Z,3.08
2023-02-19T10:16:42.299Z,7.43
2023-02-19T10:20:44.006Z,4.07
2023-02-19T10:24:47.947Z,3.42
2023-02-19T10:28:49.856Z,4.55
2023-02-19T10:33:08.945Z,4.73
2023-02-19T10:37:16.115Z,4.78
2023-02-19T10:41:21.413Z,3.55
2023-02-19T10:45:32.542Z,6.18
2023-02-19T10:49:43.382Z,2.55
2023-02-19T10:53:48.134Z,2.50
2023-02-19T10:57:50.600Z,6.00
2023-02-19T11:02:20.784Z,4.38
2023-02-19T11:06:26.885Z,5.35
2023-02-19T11:10:36.554Z,5.72
2023-02-19T11:14:42.921Z,6.35
2023-02-19T11:18:45.179Z,5.03
2023-02-19T11:22:47.049Z,3.70
2023-02-19T11:26:48.942Z,3.75
2023-02-19T11:31:44.426Z,5.77
2023-02-19T11:36:10.513Z,5.22
2023-02-19T11:44:51.696Z,3.88
2023-02-19T11:49:14.206Z,3.05
2023-02-19T11:53:29.465Z,6.30
2023-02-19T11:57:31.018Z,7.82
2023-02-19T12:02:11.028Z,4.95
2023-02-19T12:06:26.739Z,5.10
2023-02-19T12:10:56.319Z,3.00
2023-02-19T12:15:49.437Z,5.13
2023-02-19T12:20:14.173Z,6.85
2023-02-19T12:24:49.152Z,3.40
2023-02-19T12:29:20.426Z,3.40
2023-02-19T12:33:49.325Z,4.88
2023-02-19T12:38:18.388Z,2.95
2023-02-19T12:42:51.146Z,4.00
2023-02-19T12:46:58.472Z,4.53
2023-02-19T12:51:12.256Z,6.70
2023-02-19T12:55:26.381Z,5.22
2023-02-19T12:59:36.929Z,7.35
2023-02-19T13:03:42.168Z,4.03
2023-02-19T13:07:48.656Z,4.03
2023-02-19T13:11:50.330Z,3.92
2023-02-19T13:16:00.164Z,6.60
2023-02-19T13:20:20.437Z,3.83
2023-02-19T13:24:35.524Z,5.43
2023-02-19T13:29:15.112Z,3.35
2023-02-19T13:33:39.923Z,4.13
2023-02-19T13:37:42.314Z,3.10
2023-02-19T13:41:51.582Z,4.32
2023-02-19T13:46:04.067Z,3.25
2023-02-19T13:50:07.764Z,6.40
2023-02-19T13:54:22.796Z,6.82
2023-02-19T13:58:33.369Z,4.22
2023-02-19T14:02:35.456Z,3.88
2023-02-19T14:07:05.064Z,5.50
2023-02-19T14:11:08.004Z,3.67
2023-02-19T14:15:24.954Z,4.30
2023-02-19T14:19:41.440Z,1.73
2023-02-19T14:23:43.695Z,3.78
2023-02-19T14:27:45.654Z,4.00
2023-02-19T14:31:47.545Z,4.37
2023-02-19T14:35:54.040Z,2.90
2023-02-19T14:39:57.770Z,3.53
2023-02-19T14:44:01.620Z,6.97
2023-02-19T14:48:03.853Z,2.20
2023-02-19T14:52:08.364Z,2.70
2023-02-19T14:56:23.831Z,4.13
2023-02-19T15:00:33.439Z,2.50
2023-02-19T15:04:36.831Z,3.30
2023-02-19T15:08:43.775Z,3.47
2023-02-19T15:12:55.165Z,2.38
2023-02-19T15:17:01.270Z,2.75
2023-02-19T15:21:05.695Z,5.82
2023-02-19T15:25:15.875Z,2.47
2023-02-19T15:29:20.304Z,2.15
2023-02-19T15:33:22.221Z,1.35
2023-02-19T15:37:25.846Z,1.58
2023-02-19T15:41:31.864Z,3.10
2023-02-19T15:45:44.632Z,2.25
2023-02-19T15:49:54.426Z,3.83
2023-02-19T15:54:04.262Z,4.82
2023-02-19T15:58:14.806Z,5.68
2023-02-19T16:02:16.904Z,7.90
2023-02-19T16:06:18.833Z,5.70
2023-02-19T16:10:25.691Z,4.97
2023-02-19T16:14:38.056Z,8.77
2023-02-19T16:18:45.606Z,2.33
2023-02-19T16:22:47.552Z,4.90
2023-02-19T16:26:49.158Z,5.10
2023-02-19T16:31:01.057Z,4.82
2023-02-19T16:35:02.883Z,3.65
2023-02-19T16:39:07.790Z,3.63
2023-02-19T16:43:12.216Z,4.05
2023-02-19T16:47:26.272Z,9.88
2023-02-19T16:51:28.280Z,16.35
2023-02-19T16:55:34.943Z,6.07
2023-02-19T16:59:37.052Z,6.75
2023-02-19T17:03:39.595Z,4.53
2023-02-19T17:07:41.295Z,5.70
2023-02-19T17:11:42.886Z,5.30
2023-02-19T17:15:44.461Z,7.50
2023-02-19T17:19:46.117Z,9.60
2023-02-19T17:23:47.666Z,13.05
2023-02-19T17:27:49.497Z,13.50
2023-02-19T17:31:51.819Z,18.35
2023-02-19T17:35:53.518Z,13.88
2023-02-19T17:39:55.103Z,15.95
2023-02-19T17:43:56.780Z,7.43
2023-02-19T17:47:58.762Z,7.20
2023-02-19T17:52:00.349Z,3.47
2023-02-19T17:56:01.908Z,4.05
2023-02-19T18:00:07.048Z,4.57
2023-02-19T18:04:14.074Z,7.60
2023-02-19T18:08:15.638Z,3.97
2023-02-19T18:12:17.238Z,3.45
2023-02-19T18:16:19.115Z,4.57
2023-02-19T18:20:26.461Z,3.90
2023-02-19T18:24:28.121Z,3.50
2023-02-19T18:28:29.716Z,4.18
2023-02-19T18:32:31.325Z,5.10
2023-02-19T18:36:33.024Z,3.10
2023-02-19T18:40:34.780Z,4.07
2023-02-19T18:44:37.949Z,5.53
2023-02-19T18:48:39.494Z,4.72
2023-02-19T18:52:41.109Z,4.40
2023-02-19T18:56:46.490Z,4.90
2023-02-19T19:00:48.123Z,4.57
2023-02-19T19:04:52.987Z,6.32
2023-02-19T19:08:54.583Z,4.70
2023-02-19T19:12:57.652Z,3.27
2023-02-19T19:17:00.295Z,4.72
2023-02-19T19:21:03.547Z,4.15
2023-02-19T19:25:05.414Z,5.78
2023-02-19T19:29:08.180Z,9.30
2023-02-19T19:33:09.766Z,6.82
2023-02-19T19:37:12.430Z,5.47
2023-02-19T19:41:16.001Z,5.10
2023-02-19T19:45:18.233Z,7.53
2023-02-19T19:49:21.864Z,7.68
2023-02-19T19:53:24.252Z,7.07
2023-02-19T19:57:25.852Z,11.38
2023-02-19T20:01:27.441Z,9.40
2023-02-19T20:05:29.099Z,8.23
2023-02-19T20:09:30.730Z,6.78
2023-02-19T20:13:34.056Z,5.95
2023-02-19T20:17:36.461Z,8.43
2023-02-19T20:21:38.018Z,7.28
2023-02-19T20:25:39.670Z,8.57
2023-02-19T20:29:44.177Z,7.28
2023-02-19T20:33:46.904Z,6.53
2023-02-19T20:37:49.466Z,5.88
2023-02-19T20:41:51.942Z,6.95
2023-02-19T20:45:53.535Z,6.53
2023-02-19T20:49:55.193Z,6.00
2023-02-19T20:53:56.720Z,8.05
2023-02-19T20:57:58.390Z,4.15
2023-02-19T21:02:00.536Z,6.45
2023-02-19T21:06:02.447Z,8.13
2023-02-19T21:10:04.131Z,7.78
2023-02-19T21:14:05.744Z,6.20
2023-02-19T21:18:07.401Z,9.73
2023-02-19T21:22:08.947Z,8.77
2023-02-19T21:26:11.696Z,13.07
2023-02-19T21:34:18.665Z,8.50
2023-02-19T21:38:20.228Z,13.38
2023-02-19T21:42:21.800Z,9.73
2023-02-19T21:46:23.990Z,6.38
2023-02-19T21:50:25.541Z,11.75
2023-02-19T21:54:27.219Z,7.40
2023-02-19T21:58:28.758Z,9.73
2023-02-19T22:02:30.357Z,10.32
2023-02-19T22:06:32.042Z,8.73
2023-02-19T22:10:33.618Z,9.82
2023-02-19T22:14:35.183Z,10.73
2023-02-19T22:18:36.930Z,8.82
2023-02-19T22:22:38.470Z,10.07
2023-02-19T22:26:40.021Z,11.57
2023-02-19T22:30:42.916Z,8.80
2023-02-19T22:38:46.541Z,8.85
2023-02-19T22:42:48.095Z,9.53
2023-02-19T22:46:54.794Z,13.77
2023-02-19T22:50:57.342Z,8.88
2023-02-19T22:55:00.013Z,8.10
2023-02-19T22:59:01.593Z,10.90
2023-02-19T23:03:03.355Z,7.63
2023-02-19T23:07:08.044Z,8.98
2023-02-19T23:11:11.583Z,7.22
2023-02-19T23:15:13.161Z,8.63
2023-02-19T23:19:16.248Z,12.32
2023-02-19T23:23:17.995Z,7.22
2023-02-19T23:27:20.011Z,9.23
2023-02-19T23:31:21.820Z,8.70
2023-02-19T23:35:23.571Z,9.80
2023-02-19T23:39:25.402Z,10.07
2023-02-19T23:43:27.123Z,13.93
2023-02-19T23:47:30.666Z,10.18
2023-02-19T23:51:32.406Z,9.50
2023-02-19T23:55:34.021Z,8.23
2023-02-19T23:59:35.606Z,9.68
